Observations for GENOVA SESTRI, Italy (LIMJ)

LIMJ 180650Z 24003KT CAVOK 24/18 Q1015  
LIMJ 180620Z 23004KT CAVOK 24/18 Q1015  
LIMJ 180550Z VRB02KT CAVOK 23/16 Q1015  
LIMJ 180520Z 27002KT CAVOK 22/16 Q1015  
LIMJ 180450Z VRB01KT CAVOK 22/15 Q1014  
LIMJ 180420Z 05004KT 340V090 CAVOK 22/15 Q1014  
LIMJ 180350Z 08007KT CAVOK 22/15 Q1014  
LIMJ 180320Z 09007KT CAVOK 22/15 Q1014  
LIMJ 180250Z 11009KT CAVOK 20/15 Q1014  
LIMJ 180220Z VRB02KT CAVOK 22/15 Q1014  
LIMJ 180150Z 36003KT CAVOK 23/15 Q1014  
LIMJ 180120Z 33003KT 310V030 CAVOK 22/16 Q1014  
LIMJ 180050Z 36003KT 330V040 CAVOK 23/16 Q1014  
LIMJ 180020Z VRB02KT CAVOK 22/16 Q1014  
LIMJ 172350Z VRB01KT CAVOK 22/16 Q1014  
LIMJ 172320Z 32003KT 300V020 CAVOK 23/16 Q1014  
LIMJ 172250Z 36003KT CAVOK 24/16 Q1014  
LIMJ 172220Z 02003KT 350V050 CAVOK 24/16 Q1014  
LIMJ 172150Z 01003KT CAVOK 24/17 Q1014  
LIMJ 172120Z 01004KT CAVOK 24/17 Q1014  
LIMJ 172050Z 31003KT 270V330 CAVOK 23/17 Q1014  
LIMJ 172020Z 02003KT CAVOK 24/17 Q1014  
LIMJ 171950Z 06003KT 020V120 CAVOK 24/17 Q1014  
LIMJ 171920Z 13005KT CAVOK 23/18 Q1013  
LIMJ 171850Z 12005KT CAVOK 23/18 Q1013  
LIMJ 171820Z 24002KT CAVOK 23/18 Q1013  
LIMJ 171750Z 26006KT 210V270 9999 FEW040 24/18 Q1013
LIMJ 171720Z 24006KT 9999 FEW040 24/18 Q1013
LIMJ 171650Z 25006KT 9999 FEW040 24/19 Q1013
LIMJ 171620Z 23006KT 9999 SCT040 24/19 Q1013
LIMJ 171550Z 23006KT 9999 SCT040 24/19 Q1013
LIMJ 171520Z 24006KT 220V290 9999 SCT040 24/19 Q1013
LIMJ 171450Z 24006KT 9999 SCT040 24/19 Q1014
LIMJ 171420Z 23005KT 9999 SCT040 24/19 Q1014
LIMJ 171350Z 23005KT 200V260 9999 SCT040 24/19 Q1014
LIMJ 171320Z 24006KT 210V290 9999 SCT040 23/18 Q1015
LIMJ 171250Z 23007KT 9999 SCT040 24/19 Q1015
LIMJ 171220Z 22005KT 9999 SCT040 24/19 Q1015
LIMJ 171150Z 22005KT 9999 SCT040 24/19 Q1015
LIMJ 171120Z 21005KT 9999 SCT040 23/19 Q1016
LIMJ 171050Z 22005KT 9999 SCT040 23/19 Q1016
LIMJ 171020Z 23007KT 200V260 9999 FEW040 23/18 Q1016
LIMJ 170950Z 23007KT 9999 FEW040 23/18 Q1015
LIMJ 170920Z 24007KT 220V280 9999 FEW040 23/18 Q1015
LIMJ 170820Z 22005KT CAVOK 22/18 Q1015  
LIMJ 170750Z 23005KT CAVOK 22/18 Q1015  
LIMJ 170720Z 24005KT CAVOK 22/18 Q1015  
LIMJ 170650Z 22003KT CAVOK 22/17 Q1015  
LIMJ 170620Z VRB02KT CAVOK 22/17 Q1015